Time;durP1;ratioP1;P1;durP2;ratioP2;P2;SDS_P1;SDS_P2;PMS_P1;PMS_P2;Temp;Humidity;BMP_temperature;BMP_pressure;BME280_temperature;BME280_humidity;BME280_pressure;Samples;Min_cycle;Max_cycle;Signal;HPM_P1;HPM_P2
2022/09/07 00:01:23;;;;;;;1.27;1.07;;;;;;;15.59;85.49;99784.19;5074711;28;20094;-70
2022/09/07 00:03:56;;;;;;;1.27;1.17;;;;;;;15.58;85.83;99788.47;5074619;28;20048;-71
2022/09/07 00:06:25;;;;;;;0.90;0.77;;;;;;;15.56;85.85;99786.81;5074989;28;20063;-70
2022/09/07 00:08:54;;;;;;;1.55;1.25;;;;;;;15.54;85.92;99786.84;5075009;28;20123;-72
2022/09/07 00:11:23;;;;;;;0.60;0.50;;;;;;;15.54;85.47;99780.84;5074356;28;20048;-70
2022/09/07 00:13:52;;;;;;;1.33;1.23;;;;;;;15.52;85.72;99773.16;5074934;28;20040;-70
2022/09/07 00:16:23;;;;;;;0.65;0.65;;;;;;;15.52;85.58;99777.47;5074782;28;20040;-72
2022/09/07 00:18:56;;;;;;;1.23;1.08;;;;;;;15.48;85.95;99771.50;5074645;28;20048;-70
2022/09/07 00:21:25;;;;;;;0.85;0.80;;;;;;;15.49;86.21;99780.94;5074487;28;20045;-72
2022/09/07 00:23:55;;;;;;;1.27;1.05;;;;;;;15.40;85.74;99763.91;5074489;28;20491;-72
2022/09/07 00:26:27;;;;;;;0.77;0.77;;;;;;;15.48;86.11;99771.50;5074259;28;20040;-72
2022/09/07 00:28:58;;;;;;;0.82;0.80;;;;;;;15.44;86.04;99769.84;5074292;28;20075;-72
2022/09/07 00:31:28;;;;;;;2.83;1.73;;;;;;;15.42;85.71;99761.31;5074614;28;20056;-72
2022/09/07 00:34:01;;;;;;;0.80;0.80;;;;;;;15.45;85.70;99765.59;5074521;28;20078;-72
2022/09/07 00:36:30;;;;;;;1.42;1.27;;;;;;;15.38;85.89;99759.66;5074089;28;20046;-72
2022/09/07 00:38:59;;;;;;;1.60;0.98;;;;;;;15.40;86.04;99765.66;5074393;28;20567;-71
2022/09/07 00:41:29;;;;;;;1.17;1.08;;;;;;;15.38;85.85;99764.81;5074448;28;20105;-72
2022/09/07 00:43:59;;;;;;;0.50;0.50;;;;;;;15.38;85.75;99780.25;5074011;28;20410;-71
2022/09/07 00:46:30;;;;;;;2.67;1.48;;;;;;;15.33;85.82;99771.78;5073957;28;20277;-71
2022/09/07 00:49:06;;;;;;;0.73;0.73;;;;;;;15.31;85.97;99776.09;5073912;28;20040;-72
2022/09/07 00:51:42;;;;;;;0.75;0.73;;;;;;;15.28;85.89;99763.31;5073883;28;20049;-70
2022/09/07 00:54:19;;;;;;;0.55;0.55;;;;;;;15.29;86.29;99768.41;5073933;28;20068;-70
2022/09/07 00:56:51;;;;;;;0.85;0.85;;;;;;;15.29;86.16;99770.13;5073775;28;20223;-71
2022/09/07 00:59:25;;;;;;;0.80;0.70;;;;;;;15.28;85.99;99769.28;5073821;28;20072;-71
2022/09/07 01:01:54;;;;;;;0.40;0.40;;;;;;;15.29;86.11;99765.84;5073796;28;20131;-71
2022/09/07 01:04:26;;;;;;;2.85;1.48;;;;;;;15.28;86.46;99763.31;5074069;28;20102;-70
2022/09/07 01:06:56;;;;;;;2.03;1.35;;;;;;;15.30;86.58;99766.69;5073983;28;20060;-70
2022/09/07 01:09:25;;;;;;;;;;;;;;;15.31;86.18;99765.78;5074260;28;20139;-70
2022/09/07 01:11:54;;;;;;;;;;;;;;;15.31;86.10;99763.22;5074151;28;19974;-70
2022/09/07 01:14:27;;;;;;;0.67;0.67;;;;;;;15.30;86.05;99767.53;5072896;28;19966;-71
2022/09/07 01:17:05;;;;;;;3.15;1.38;;;;;;;15.28;86.40;99763.31;5074037;28;20555;-71
2022/09/07 01:20:11;;;;;;;3.03;0.90;;;;;;;15.27;86.45;99752.16;5073924;28;20072;-71
2022/09/07 01:23:02;;;;;;;1.00;0.93;;;;;;;15.28;86.03;99748.69;5073483;28;20032;-71
2022/09/07 01:25:43;;;;;;;0.60;0.60;;;;;;;15.28;85.94;99750.44;5073955;28;20437;-70
2022/09/07 01:28:18;;;;;;;0.63;0.60;;;;;;;15.26;85.78;99749.63;5073358;28;20056;-71
2022/09/07 01:30:55;;;;;;;0.90;0.82;;;;;;;15.27;85.68;99749.59;5073522;28;20446;-70
2022/09/07 01:33:47;;;;;;;0.57;0.57;;;;;;;15.23;85.65;99750.53;5073496;28;20075;-71
2022/09/07 01:36:24;;;;;;;0.30;0.30;;;;;;;15.25;85.58;99740.22;5073759;28;20053;-71
2022/09/07 01:38:56;;;;;;;0.68;0.68;;;;;;;15.25;85.50;99735.06;5073649;28;20095;-70
2022/09/07 01:41:31;;;;;;;1.20;0.77;;;;;;;15.26;85.88;99735.03;5073459;28;20048;-71
2022/09/07 01:44:06;;;;;;;1.30;1.15;;;;;;;15.21;86.06;99736.00;5073732;28;20070;-71
2022/09/07 01:46:40;;;;;;;0.82;0.82;;;;;;;15.15;85.92;99739.53;5073391;28;20047;-70
2022/09/07 01:49:14;;;;;;;0.50;0.50;;;;;;;15.13;85.88;99743.88;5073268;28;20036;-71
2022/09/07 01:51:50;;;;;;;1.17;0.75;;;;;;;15.16;85.83;99732.69;5073674;28;20048;-71
2022/09/07 01:54:25;;;;;;;1.25;1.05;;;;;;;15.17;85.74;99735.22;5073689;28;20048;-70
2022/09/07 01:56:59;;;;;;;0.47;0.45;;;;;;;15.16;86.03;99737.81;5073585;28;20549;-71
2022/09/07 01:59:34;;;;;;;1.20;1.10;;;;;;;15.13;85.77;99737.88;5073141;28;20068;-70
2022/09/07 02:02:07;;;;;;;2.65;0.63;;;;;;;15.09;85.68;99736.22;5073211;28;20102;-70
2022/09/07 02:04:40;;;;;;;1.40;1.17;;;;;;;15.06;85.71;99732.00;5073158;28;20494;-70
2022/09/07 02:07:15;;;;;;;0.77;0.77;;;;;;;15.05;85.94;99726.88;5073165;28;20044;-70
2022/09/07 02:09:50;;;;;;;0.75;0.75;;;;;;;15.05;85.74;99724.28;5072771;28;20084;-71
2022/09/07 02:12:25;;;;;;;8.18;1.05;;;;;;;15.05;86.30;99726.88;5073369;28;20442;-70
2022/09/07 02:15:00;;;;;;;0.50;0.50;;;;;;;15.04;86.03;99720.03;5073127;28;20072;-69
2022/09/07 02:17:33;;;;;;;9.18;1.23;;;;;;;15.02;86.08;99714.09;5073072;28;20048;-70
2022/09/07 02:20:10;;;;;;;0.43;0.43;;;;;;;15.01;86.10;99720.09;5073205;28;20379;-71
2022/09/07 02:22:42;;;;;;;0.52;0.52;;;;;;;15.01;86.17;99717.53;5073350;28;20049;-71
2022/09/07 02:25:17;;;;;;;1.75;1.38;;;;;;;15.02;86.09;99714.09;5074141;28;20048;-71
2022/09/07 02:27:50;;;;;;;2.65;1.55;;;;;;;15.02;85.87;99714.91;5042288;28;20048;-70
2022/09/07 02:30:20;;;;;;;1.08;0.90;;;;;;;14.98;85.96;99718.41;5076554;28;20055;-70
2022/09/07 02:32:49;;;;;;;0.80;0.80;;;;;;;14.96;86.07;99721.88;5076576;28;20136;-70
2022/09/07 02:35:18;;;;;;;1.83;0.88;;;;;;;14.97;86.32;99721.03;5076819;28;20040;-70
2022/09/07 02:37:48;;;;;;;0.52;0.52;;;;;;;14.98;86.02;99722.72;5076470;28;20048;-70
2022/09/07 02:40:17;;;;;;;0.57;0.57;;;;;;;14.89;86.02;99722.88;5076368;28;20568;-70
2022/09/07 02:42:48;;;;;;;0.73;0.73;;;;;;;14.91;85.99;99721.13;5076435;28;20093;-70
2022/09/07 02:45:17;;;;;;;0.85;0.85;;;;;;;14.91;86.21;99723.69;5076373;28;20490;-70
2022/09/07 02:48:06;;;;;;;0.77;0.77;;;;;;;14.93;85.97;99720.22;5076507;28;20044;-70
2022/09/07 02:50:52;;;;;;;0.93;0.88;;;;;;;14.92;86.20;99717.69;5076172;28;20044;-70
2022/09/07 02:53:54;;;;;;;1.13;0.95;;;;;;;14.90;85.88;99720.25;5076519;28;20061;-70
2022/09/07 02:56:35;;;;;;;1.52;0.88;;;;;;;14.88;85.85;99709.16;5066486;28;20131;-71
2022/09/07 02:59:14;;;;;;;0.45;0.45;;;;;;;14.86;85.63;99710.06;5076114;28;20060;-71
2022/09/07 03:01:54;;;;;;;0.70;0.70;;;;;;;14.81;85.68;99704.16;5076320;28;20556;-71
2022/09/07 03:04:37;;;;;;;3.10;1.10;;;;;;;14.82;85.91;99699.00;5076304;28;20119;-70
2022/09/07 03:07:10;;;;;;;0.75;0.65;;;;;;;14.84;86.09;99696.41;5076083;28;20037;-70
2022/09/07 03:09:44;;;;;;;0.63;0.63;;;;;;;14.85;86.29;99698.13;5075580;28;20502;-70
2022/09/07 03:12:13;;;;;;;0.68;0.68;;;;;;;14.88;86.01;99703.19;5075912;28;20500;-70
2022/09/07 03:14:43;;;;;;;1.33;0.73;;;;;;;14.88;86.41;99700.59;5075820;28;20048;-71
2022/09/07 03:17:13;;;;;;;3.50;0.95;;;;;;;14.89;86.19;99697.19;5076086;28;20486;-71
2022/09/07 03:19:43;;;;;;;0.75;0.75;;;;;;;14.88;86.47;99698.03;5076023;28;20058;-70
2022/09/07 03:22:12;;;;;;;0.77;0.75;;;;;;;14.88;86.37;99705.75;5075605;28;20048;-70
2022/09/07 03:24:42;;;;;;;1.45;1.35;;;;;;;14.89;86.12;99702.31;5076007;28;20044;-71
2022/09/07 03:27:11;;;;;;;0.95;0.82;;;;;;;14.91;86.61;99705.69;5075899;28;20135;-70
2022/09/07 03:29:40;;;;;;;0.55;0.55;;;;;;;14.93;86.23;99701.38;5075522;28;20090;-70
2022/09/07 03:32:09;;;;;;;7.85;0.85;;;;;;;14.93;86.23;99696.25;5076051;28;20123;-70
2022/09/07 03:34:39;;;;;;;1.90;1.48;;;;;;;14.89;86.13;99697.19;5076016;28;20432;-70
2022/09/07 03:37:09;;;;;;;1.00;0.90;;;;;;;14.85;85.90;99700.69;5074747;28;20072;-70
2022/09/07 03:39:38;;;;;;;1.02;0.93;;;;;;;14.80;85.97;99698.19;5075701;28;20103;-70
2022/09/07 03:42:07;;;;;;;1.50;1.40;;;;;;;14.81;86.03;99702.44;5075496;28;20043;-70
2022/09/07 03:44:35;;;;;;;0.82;0.70;;;;;;;14.83;85.86;99699.88;5075208;28;20040;-70
2022/09/07 03:47:04;;;;;;;2.60;1.20;;;;;;;14.81;86.11;99699.03;5075276;28;20041;-70
2022/09/07 03:49:33;;;;;;;0.80;0.80;;;;;;;14.76;86.10;99702.53;5075126;28;20086;-70
2022/09/07 03:52:03;;;;;;;1.47;0.80;;;;;;;14.75;86.40;99695.72;5075260;28;20048;-70
2022/09/07 03:54:33;;;;;;;0.93;0.80;;;;;;;14.77;86.27;99698.25;5075364;28;20057;-70
2022/09/07 03:57:07;;;;;;;0.60;0.60;;;;;;;14.77;86.42;99700.81;5075329;28;20064;-71
2022/09/07 03:59:36;;;;;;;0.90;0.83;;;;;;;14.77;85.98;99705.97;5074907;28;20079;-70
2022/09/07 04:02:05;;;;;;;1.30;1.20;;;;;;;14.73;85.83;99701.75;5075269;28;20050;-70
2022/09/07 04:04:33;;;;;;;0.88;0.88;;;;;;;14.72;86.16;99697.47;5075192;28;20478;-69
2022/09/07 04:07:02;;;;;;;1.08;1.00;;;;;;;14.71;86.38;99704.34;5074790;28;20485;-70
2022/09/07 04:09:33;;;;;;;1.05;0.82;;;;;;;14.71;86.12;99709.47;5074420;28;20036;-70
2022/09/07 04:12:01;;;;;;;0.90;0.90;;;;;;;14.72;86.28;99711.19;5074610;28;20052;-70
2022/09/07 04:14:30;;;;;;;1.45;1.35;;;;;;;14.72;85.86;99711.19;5074706;28;20098;-69
2022/09/07 04:16:59;;;;;;;4.00;0.77;;;;;;;14.71;85.79;99704.34;5074584;28;20075;-70
2022/09/07 04:19:29;;;;;;;0.65;0.65;;;;;;;14.70;85.87;99710.38;5074837;28;20037;-70
2022/09/07 04:21:57;;;;;;;0.75;0.70;;;;;;;14.70;85.99;99707.78;5075236;28;20124;-69
2022/09/07 04:24:26;;;;;;;1.27;1.17;;;;;;;14.68;86.16;99709.50;5074333;28;20499;-70
2022/09/07 04:26:56;;;;;;;1.33;1.07;;;;;;;14.68;86.08;99719.78;5074362;28;20132;-70
2022/09/07 04:29:25;;;;;;;0.85;0.70;;;;;;;14.43;86.38;99672.28;5074317;28;20479;-70
2022/09/07 04:31:54;;;;;;;0.63;0.63;;;;;;;14.65;86.07;99709.59;5074568;28;20049;-70
2022/09/07 04:34:23;;;;;;;0.57;0.50;;;;;;;14.67;86.46;99707.84;5073372;28;20058;-70
2022/09/07 04:36:51;;;;;;;1.10;1.00;;;;;;;14.72;85.97;99706.03;5074071;28;20045;-70
2022/09/07 04:39:21;;;;;;;0.60;0.60;;;;;;;14.75;86.57;99707.72;5074094;28;20048;-70
2022/09/07 04:41:49;;;;;;;0.90;0.90;;;;;;;14.75;85.93;99705.13;5074077;28;20048;-70
2022/09/07 04:44:19;;;;;;;1.20;1.08;;;;;;;14.77;86.18;99714.53;5074217;28;20028;-69
2022/09/07 04:46:48;;;;;;;1.77;1.58;;;;;;;14.78;85.91;99711.06;5074489;28;20048;-70
2022/09/07 04:49:17;;;;;;;1.05;0.98;;;;;;;14.84;85.99;99714.41;5072970;28;20110;-70
2022/09/07 04:51:46;;;;;;;2.00;1.30;;;;;;;14.86;86.34;99717.78;5074216;28;20059;-70
2022/09/07 04:54:14;;;;;;;0.70;0.70;;;;;;;14.87;85.95;99714.34;5073839;28;20490;-70
2022/09/07 04:56:43;;;;;;;0.70;0.70;;;;;;;14.92;86.15;99720.25;5074191;28;20094;-70
2022/09/07 04:59:12;;;;;;;1.40;1.30;;;;;;;14.96;86.28;99719.31;5074195;28;20110;-70
2022/09/07 05:01:42;;;;;;;1.15;1.05;;;;;;;15.03;86.12;99721.75;5074103;28;20127;-70
2022/09/07 05:04:11;;;;;;;0.80;0.80;;;;;;;15.08;86.33;99729.38;5073730;28;20101;-70
2022/09/07 05:06:39;;;;;;;1.10;1.00;;;;;;;15.12;86.09;99731.00;5074029;28;20082;-70
2022/09/07 05:09:08;;;;;;;1.23;1.10;;;;;;;15.18;86.01;99730.91;5073542;28;20120;-70
2022/09/07 05:11:37;;;;;;;1.13;1.05;;;;;;;15.24;86.36;99733.34;5073439;28;20504;-70
2022/09/07 05:14:05;;;;;;;0.60;0.60;;;;;;;15.30;86.04;99736.69;5073556;28;20098;-70
2022/09/07 05:16:34;;;;;;;1.83;1.40;;;;;;;15.35;86.12;99728.88;5073952;28;20105;-71
2022/09/07 05:19:05;;;;;;;2.28;1.20;;;;;;;15.41;86.25;99729.59;5073557;28;20037;-70
2022/09/07 05:21:35;;;;;;;1.38;1.27;;;;;;;15.52;85.90;99726.88;5073587;28;20056;-71
2022/09/07 05:24:05;;;;;;;0.80;0.80;;;;;;;15.64;85.91;99730.91;5073422;28;20094;-70
2022/09/07 05:26:34;;;;;;;;;;;;;;;15.71;86.24;99728.19;5073867;28;20068;-71
2022/09/07 05:29:04;;;;;;;0.60;0.60;;;;;;;15.83;86.09;99733.06;5073576;28;20011;-70
2022/09/07 05:31:53;;;;;;;0.73;0.73;;;;;;;15.91;86.46;99731.16;5073637;28;20397;-70
2022/09/07 05:34:23;;;;;;;1.00;0.95;;;;;;;16.04;86.49;99726.59;5073649;28;20107;-71
2022/09/07 05:36:55;;;;;;;1.20;1.10;;;;;;;16.13;86.47;99730.69;5073686;28;20063;-70
2022/09/07 05:39:23;;;;;;;0.90;0.90;;;;;;;16.21;86.48;99719.34;5073292;28;20482;-71
2022/09/07 05:41:52;;;;;;;0.60;0.60;;;;;;;16.31;86.17;99725.13;5073604;28;20040;-71
2022/09/07 05:44:21;;;;;;;0.95;0.73;;;;;;;16.43;86.19;99735.16;5073564;28;20045;-71
2022/09/07 05:47:10;;;;;;;1.45;1.00;;;;;;;16.52;85.90;99737.53;5073637;28;20040;-72
2022/09/07 05:49:40;;;;;;;0.85;0.85;;;;;;;16.60;85.54;99730.50;5073174;28;20066;-70
2022/09/07 05:52:09;;;;;;;1.90;1.02;;;;;;;16.72;85.69;99730.19;5073615;28;20048;-71
2022/09/07 05:54:38;;;;;;;0.73;0.73;;;;;;;16.88;85.59;99738.38;5073221;28;20052;-71
2022/09/07 05:57:10;;;;;;;1.13;0.80;;;;;;;16.98;84.71;99734.69;5073364;28;20410;-71
2022/09/07 05:59:39;;;;;;;2.00;1.08;;;;;;;17.09;85.01;99730.94;5073218;28;20063;-71
2022/09/07 06:02:08;;;;;;;1.27;1.17;;;;;;;17.17;84.33;99726.41;5077165;28;20072;-70
2022/09/07 06:04:36;;;;;;;1.10;1.00;;;;;;;17.24;84.46;99727.09;5077448;28;20044;-71
2022/09/07 06:07:07;;;;;;;1.30;1.20;;;;;;;17.31;83.85;99729.47;5076951;28;20097;-71
2022/09/07 06:09:50;;;;;;;0.90;0.88;;;;;;;17.24;83.49;99717.63;5076928;28;20051;-70
2022/09/07 06:12:39;;;;;;;1.80;1.23;;;;;;;17.35;83.21;99731.06;5076806;28;20072;-71
2022/09/07 06:15:13;;;;;;;2.00;1.10;;;;;;;17.33;83.04;99722.53;5076831;28;20140;-71
2022/09/07 06:17:42;;;;;;;1.27;1.08;;;;;;;17.41;82.55;99720.59;5076671;28;20048;-71
2022/09/07 06:20:11;;;;;;;2.50;1.67;;;;;;;17.50;82.43;99723.78;5076763;28;20098;-71
2022/09/07 06:22:41;;;;;;;1.10;1.05;;;;;;;17.63;82.55;99714.84;5076904;28;20037;-71
2022/09/07 06:25:09;;;;;;;0.80;0.80;;;;;;;17.71;82.17;99710.28;5076757;28;20056;-70
2022/09/07 06:27:38;;;;;;;0.90;0.90;;;;;;;17.83;82.23;99707.34;5076637;28;20487;-70
2022/09/07 06:30:08;;;;;;;1.45;1.00;;;;;;;17.95;81.90;99712.16;5076535;28;20048;-70
2022/09/07 06:32:37;;;;;;;1.38;1.20;;;;;;;18.05;81.64;99705.81;5076763;28;20105;-70
2022/09/07 06:35:08;;;;;;;0.93;0.70;;;;;;;18.16;81.39;99714.09;5076565;28;20045;-71
2022/09/07 06:37:37;;;;;;;0.70;0.70;;;;;;;18.26;81.06;99714.66;5076293;28;20044;-70
2022/09/07 06:40:09;;;;;;;1.13;0.93;;;;;;;18.36;80.42;99714.31;5076235;28;20128;-69
2022/09/07 06:42:38;;;;;;;1.00;0.93;;;;;;;18.49;80.28;99715.66;5076379;28;20044;-70
2022/09/07 06:45:09;;;;;;;0.77;0.70;;;;;;;18.57;80.23;99703.31;5076367;28;20052;-70
2022/09/07 06:47:40;;;;;;;1.80;1.35;;;;;;;18.64;79.76;99715.13;5076592;28;20121;-70
2022/09/07 06:50:11;;;;;;;1.00;0.90;;;;;;;18.61;79.63;99722.16;5076634;28;20368;-70
2022/09/07 06:52:40;;;;;;;1.02;0.93;;;;;;;18.65;79.83;99714.25;5077101;28;20561;-70
2022/09/07 06:55:30;;;;;;;1.17;1.07;;;;;;;18.71;79.88;99716.63;5076362;28;20407;-70
2022/09/07 06:57:59;;;;;;;1.10;0.98;;;;;;;18.80;79.76;99712.06;5075965;28;20048;-70
2022/09/07 07:00:27;;;;;;;0.82;0.77;;;;;;;18.90;79.62;99711.69;5076052;28;20041;-70
2022/09/07 07:02:56;;;;;;;1.58;1.48;;;;;;;19.05;79.64;99715.50;5076251;28;20037;-70
2022/09/07 07:05:25;;;;;;;0.88;0.82;;;;;;;19.15;79.47;99711.69;5075966;28;20509;-70
2022/09/07 07:07:55;;;;;;;1.40;1.30;;;;;;;19.20;78.84;99720.13;5076002;28;20560;-70
2022/09/07 07:10:24;;;;;;;0.85;0.73;;;;;;;19.27;78.57;99711.25;5075648;28;20040;-70
2022/09/07 07:12:56;;;;;;;1.65;1.30;;;;;;;19.34;78.40;99712.72;5065513;28;20033;-70
2022/09/07 07:15:28;;;;;;;1.08;0.90;;;;;;;19.53;78.07;99712.97;5055739;28;20061;-70
2022/09/07 07:17:57;;;;;;;1.38;1.20;;;;;;;19.67;78.01;99714.16;5055900;28;20116;-70
2022/09/07 07:20:42;;;;;;;1.80;1.45;;;;;;;19.80;77.53;99712.75;5054417;28;20128;-70
2022/09/07 07:23:12;;;;;;;1.23;1.13;;;;;;;19.88;77.28;99710.75;5055132;28;20044;-70
2022/09/07 07:25:41;;;;;;;1.35;1.08;;;;;;;19.99;76.87;99705.97;5055663;28;20041;-70
2022/09/07 07:28:12;;;;;;;1.80;1.33;;;;;;;20.12;76.38;99708.94;5055469;28;20079;-70
2022/09/07 07:31:03;;;;;;;1.00;0.90;;;;;;;20.30;75.55;99712.59;5054101;28;20029;-70
2022/09/07 07:33:38;;;;;;;0.95;0.95;;;;;;;20.44;75.11;99705.13;5054419;28;20090;-70
2022/09/07 07:36:12;;;;;;;1.25;1.05;;;;;;;20.48;74.56;99707.53;5055412;28;20136;-70
2022/09/07 07:38:42;;;;;;;0.70;0.70;;;;;;;20.52;74.76;99708.22;5056227;28;20082;-71
2022/09/07 07:41:30;;;;;;;1.45;1.35;;;;;;;20.59;74.91;99714.84;5075180;28;20570;-72
2022/09/07 07:44:21;;;;;;;0.93;0.85;;;;;;;20.65;74.47;99719.81;5072924;28;20132;-70
2022/09/07 07:46:50;;;;;;;0.88;0.88;;;;;;;20.62;74.08;99725.09;5075188;28;20178;-71
2022/09/07 07:49:19;;;;;;;0.95;0.90;;;;;;;20.67;73.47;99724.03;5071935;28;20124;-70
2022/09/07 07:51:48;;;;;;;0.88;0.80;;;;;;;20.76;73.15;99727.97;5063694;28;20049;-70
2022/09/07 07:54:37;;;;;;;0.68;0.60;;;;;;;20.82;73.45;99719.94;5054849;28;20041;-70
2022/09/07 07:57:06;;;;;;;1.27;0.97;;;;;;;20.92;74.00;99726.44;5055292;28;20399;-70
2022/09/07 07:59:36;;;;;;;2.25;1.42;;;;;;;21.07;73.70;99722.38;5054753;28;20071;-70
2022/09/07 08:02:07;;;;;;;0.63;0.63;;;;;;;21.22;72.84;99727.75;5059852;28;20070;-69
2022/09/07 08:04:36;;;;;;;0.60;0.60;;;;;;;21.31;71.68;99727.34;5074519;28;20049;-70
2022/09/07 08:07:05;;;;;;;1.40;1.27;;;;;;;21.47;71.50;99729.28;5074637;28;20060;-70
2022/09/07 08:09:40;;;;;;;0.80;0.80;;;;;;;21.57;71.40;99727.97;5074437;28;20102;-69
2022/09/07 08:12:11;;;;;;;0.73;0.70;;;;;;;21.69;70.55;99733.44;5073092;28;20498;-70
2022/09/07 08:14:41;;;;;;;0.80;0.80;;;;;;;21.73;69.74;99728.94;5054577;28;20041;-70
2022/09/07 08:17:11;;;;;;;1.20;0.93;;;;;;;21.79;69.32;99729.50;5055269;28;20059;-70
2022/09/07 08:19:40;;;;;;;2.67;1.63;;;;;;;21.88;69.23;99730.91;5054211;28;20055;-70
2022/09/07 08:22:09;;;;;;;0.73;0.70;;;;;;;22.02;69.18;99731.09;5054465;28;20052;-70
2022/09/07 08:24:38;;;;;;;1.65;1.50;;;;;;;22.12;69.35;99737.56;5054110;28;20092;-71
2022/09/07 08:27:06;;;;;;;1.90;0.82;;;;;;;22.21;69.32;99726.72;5054387;28;20037;-70
2022/09/07 08:29:35;;;;;;;1.52;1.33;;;;;;;22.27;69.61;99729.00;5053600;28;20394;-70
2022/09/07 08:32:07;;;;;;;0.80;0.80;;;;;;;22.38;69.31;99729.38;5054180;28;20056;-69
2022/09/07 08:34:36;;;;;;;1.30;1.08;;;;;;;22.44;68.62;99723.84;5054251;28;20056;-70
2022/09/07 08:37:05;;;;;;;0.68;0.68;;;;;;;22.31;68.21;99680.31;5053906;28;20037;-69
2022/09/07 08:39:35;;;;;;;1.93;1.30;;;;;;;22.65;68.27;99722.84;5054482;28;20136;-69
2022/09/07 08:42:31;;;;;;;1.77;1.50;;;;;;;22.74;67.86;99715.50;5054009;28;20080;-70
2022/09/07 08:45:06;;;;;;;0.80;0.57;;;;;;;22.88;68.05;99713.03;5054099;28;20051;-70
2022/09/07 08:47:41;;;;;;;1.00;0.93;;;;;;;22.90;67.70;99724.22;5054000;28;20503;-69
2022/09/07 08:50:17;;;;;;;0.90;0.90;;;;;;;22.94;67.38;99723.16;5053860;28;20049;-70
2022/09/07 08:52:50;;;;;;;1.05;0.95;;;;;;;22.94;66.80;99717.97;5053363;28;20490;-69
2022/09/07 08:55:26;;;;;;;0.73;0.73;;;;;;;23.02;66.82;99715.78;5063249;28;20045;-69
2022/09/07 08:58:04;;;;;;;1.58;1.08;;;;;;;23.16;66.68;99715.91;5067238;28;20049;-69
2022/09/07 09:00:34;;;;;;;1.35;1.23;;;;;;;23.19;66.45;99714.00;5054125;28;20102;-70
2022/09/07 09:03:07;;;;;;;0.60;0.60;;;;;;;23.24;66.28;99718.97;5053740;28;20045;-69
2022/09/07 09:06:03;;;;;;;0.88;0.80;;;;;;;23.33;66.02;99715.91;5063208;28;20036;-70
2022/09/07 09:08:47;;;;;;;2.13;1.15;;;;;;;23.39;65.72;99720.84;5061807;28;20044;-70
2022/09/07 09:11:22;;;;;;;1.08;0.90;;;;;;;23.31;65.67;99720.34;5053452;28;20049;-69
2022/09/07 09:14:01;;;;;;;0.85;0.70;;;;;;;23.42;65.71;99720.66;5053900;28;20045;-69
2022/09/07 09:16:35;;;;;;;2.67;1.15;;;;;;;23.64;66.08;99709.94;5054180;28;20041;-70
2022/09/07 09:19:21;;;;;;;1.45;1.17;;;;;;;23.69;65.42;99703.56;5053491;28;20487;-69
2022/09/07 09:22:01;;;;;;;0.80;0.80;;;;;;;23.77;64.76;99706.59;5053534;28;20052;-69
2022/09/07 09:24:36;;;;;;;0.75;0.75;;;;;;;23.92;65.41;99700.53;5053540;28;20049;-69
2022/09/07 09:27:05;;;;;;;1.23;0.93;;;;;;;24.08;65.07;99699.72;5052856;28;20438;-69
2022/09/07 09:29:34;;;;;;;1.45;1.23;;;;;;;24.05;64.04;99705.06;5053255;28;20104;-69
2022/09/07 09:32:28;;;;;;;0.90;0.83;;;;;;;24.10;64.18;99698.72;5054021;28;20040;-71
2022/09/07 09:35:04;;;;;;;0.77;0.77;;;;;;;24.15;64.32;99693.25;5054791;28;20316;-69
2022/09/07 09:37:37;;;;;;;0.90;0.77;;;;;;;24.29;64.70;99696.75;5053189;28;20422;-70
2022/09/07 09:40:17;;;;;;;0.77;0.70;;;;;;;24.42;64.25;99705.59;5053264;28;20087;-69
2022/09/07 09:42:47;;;;;;;0.80;0.73;;;;;;;24.49;63.40;99696.47;5056180;28;20068;-69
2022/09/07 09:45:20;;;;;;;0.70;0.70;;;;;;;24.43;62.83;99691.59;5052947;28;20127;-69
2022/09/07 09:47:50;;;;;;;1.10;1.00;;;;;;;24.53;62.71;99697.97;5052910;28;20049;-70
2022/09/07 09:50:23;;;;;;;1.27;1.17;;;;;;;24.63;62.48;99698.28;5052963;28;20049;-69
2022/09/07 09:53:24;;;;;;;0.60;0.60;;;;;;;24.57;61.87;99694.25;5053148;28;20044;-69
2022/09/07 09:55:55;;;;;;;0.60;0.60;;;;;;;24.64;62.11;99692.16;5052995;28;20052;-70
2022/09/07 09:58:30;;;;;;;1.02;0.98;;;;;;;24.75;61.66;99692.34;5053067;28;20041;-69
2022/09/07 10:01:23;;;;;;;1.10;1.00;;;;;;;24.83;61.16;99684.09;5053212;28;20475;-69
2022/09/07 10:03:55;;;;;;;1.55;1.20;;;;;;;24.90;61.26;99693.25;5053272;28;20045;-69
2022/09/07 10:06:31;;;;;;;1.52;1.10;;;;;;;24.96;61.24;99690.25;5052899;28;20442;-67
2022/09/07 10:09:02;;;;;;;1.23;1.10;;;;;;;25.07;62.27;99682.66;5052972;28;20052;-70
2022/09/07 10:11:43;;;;;;;0.70;0.70;;;;;;;25.19;62.64;99681.91;5072612;28;20056;-69
2022/09/07 10:14:34;;;;;;;1.15;0.82;;;;;;;25.26;62.80;99684.06;5072813;28;20095;-68
2022/09/07 10:17:12;;;;;;;0.90;0.90;;;;;;;25.37;62.79;99679.94;5059984;28;20041;-69
2022/09/07 10:19:43;;;;;;;0.75;0.75;;;;;;;25.46;61.69;99679.44;5052689;28;20046;-69
2022/09/07 10:22:32;;;;;;;0.95;0.90;;;;;;;25.56;61.56;99683.13;5070214;28;20044;-68
2022/09/07 10:25:02;;;;;;;1.08;0.98;;;;;;;25.67;60.98;99672.84;5072551;28;20040;-69
2022/09/07 10:27:34;;;;;;;0.90;0.90;;;;;;;25.83;61.25;99668.34;5061314;28;20045;-68
2022/09/07 10:30:07;;;;;;;0.80;0.80;;;;;;;25.92;61.60;99675.59;5053097;28;20045;-70
2022/09/07 10:32:50;;;;;;;1.00;0.80;;;;;;;25.75;61.07;99665.34;5052651;28;20396;-69
2022/09/07 10:35:26;;;;;;;1.15;0.98;;;;;;;25.89;61.22;99674.00;5052743;28;20057;-69
2022/09/07 10:38:12;;;;;;;1.60;1.25;;;;;;;25.94;60.32;99671.94;5053040;28;20103;-70
2022/09/07 10:40:44;;;;;;;1.20;0.90;;;;;;;26.07;61.24;99666.78;5056993;28;20045;-69
2022/09/07 10:43:19;;;;;;;1.13;0.93;;;;;;;25.88;60.13;99619.19;5052553;28;20045;-70
2022/09/07 10:46:09;;;;;;;1.10;0.90;;;;;;;26.10;59.55;99666.56;5051767;28;20045;-70
2022/09/07 10:48:49;;;;;;;1.13;1.02;;;;;;;26.14;60.98;99662.84;5055952;28;20045;-68
2022/09/07 10:51:24;;;;;;;1.77;0.95;;;;;;;26.25;60.47;99670.84;5056464;28;20391;-68
2022/09/07 10:54:06;;;;;;;0.77;0.75;;;;;;;26.36;59.94;99663.13;5056305;28;20364;-69
2022/09/07 10:57:05;;;;;;;1.95;1.35;;;;;;;26.53;59.85;99660.25;5056207;28;20036;-70
2022/09/07 10:59:48;;;;;;;0.70;0.70;;;;;;;26.51;58.91;99656.88;5055819;28;20502;-69
2022/09/07 11:03:07;;;;;;;0.90;0.85;;;;;;;26.58;58.62;99654.69;5063632;28;20410;-70
2022/09/07 11:06:08;;;;;;;1.45;1.35;;;;;;;26.53;57.89;99643.69;5055659;28;20048;-71
2022/09/07 11:08:58;;;;;;;2.10;0.90;;;;;;;26.28;57.39;99641.84;5055878;28;20041;-68
2022/09/07 11:11:54;;;;;;;0.80;0.80;;;;;;;26.57;58.32;99640.75;5058410;28;20045;-69
2022/09/07 11:14:38;;;;;;;1.15;1.05;;;;;;;26.67;57.90;99646.22;5056033;28;20040;-69
2022/09/07 11:17:15;;;;;;;2.72;1.10;;;;;;;26.62;57.25;99648.31;5055308;28;20048;-69
2022/09/07 11:19:53;;;;;;;1.58;1.20;;;;;;;26.63;57.17;99640.34;5059908;28;20049;-69
2022/09/07 11:22:32;;;;;;;2.33;1.00;;;;;;;26.78;56.86;99637.69;5075962;28;20524;-70
2022/09/07 11:25:08;;;;;;;0.52;0.52;;;;;;;26.90;57.00;99636.84;5075668;28;20521;-67
2022/09/07 11:28:03;;;;;;;0.65;0.65;;;;;;;26.88;56.62;99629.06;5075670;28;20097;-68
2022/09/07 11:30:40;;;;;;;0.60;0.60;;;;;;;26.98;57.05;99629.28;5075683;28;20056;-68
2022/09/07 11:33:17;;;;;;;1.60;1.35;;;;;;;26.98;56.77;99630.13;5075705;28;20037;-67
2022/09/07 11:35:52;;;;;;;1.20;0.70;;;;;;;27.08;56.42;99632.94;5075780;28;20059;-67
2022/09/07 11:38:34;;;;;;;0.85;0.80;;;;;;;27.21;56.33;99633.78;5074219;28;20040;-68
2022/09/07 11:41:16;;;;;;;1.13;1.02;;;;;;;27.24;55.96;99625.69;5055336;28;20041;-70
2022/09/07 11:43:48;;;;;;;4.50;1.17;;;;;;;27.25;55.69;99622.13;5057054;28;20452;-68
2022/09/07 11:46:24;;;;;;;1.02;0.93;;;;;;;27.38;56.17;99622.16;5055493;28;20084;-68
2022/09/07 11:48:56;;;;;;;0.80;0.80;;;;;;;27.45;56.32;99618.97;5055134;28;20098;-67
2022/09/07 11:51:37;;;;;;;1.85;1.13;;;;;;;27.42;55.11;99616.59;5055197;28;20376;-68
2022/09/07 11:54:21;;;;;;;0.93;0.90;;;;;;;27.47;55.35;99609.22;5054940;28;20049;-67
2022/09/07 11:56:55;;;;;;;1.15;0.88;;;;;;;27.56;55.00;99610.34;5055029;28;20049;-67
2022/09/07 11:59:43;;;;;;;3.00;1.30;;;;;;;27.71;55.36;99607.47;5054250;28;20517;-67
2022/09/07 12:02:43;;;;;;;0.68;0.68;;;;;;;27.77;54.79;99604.41;5055439;28;20067;-68
2022/09/07 12:05:44;;;;;;;0.82;0.70;;;;;;;27.63;53.97;99601.09;5056541;28;20087;-70
2022/09/07 12:08:28;;;;;;;1.00;0.95;;;;;;;27.66;53.52;99595.63;5054641;28;20128;-71